ADDS METAR Data INFO
IDs: Format: Raw Decoded Include TAF

Data at: 1510 UTC 21 Feb 2018

KLHM 211435Z AUTO 33005KT 10SM CLR M02/M04 A3021 RMK AO1
KLHM 211415Z AUTO 33006KT 10SM CLR M01/M04 A3020 RMK AO1
KLHM 211355Z AUTO 32005KT 10SM CLR M01/M03 A3020 RMK AO1
KLHM 211335Z AUTO 00000KT 10SM CLR 00/M03 A3020 RMK AO1
KLHM 211315Z AUTO 33004KT 10SM CLR 00/M03 A3019 RMK AO1
KLHM 211255Z AUTO 00000KT 10SM CLR 00/M04 A3019 RMK AO1
KLHM 201515Z AUTO 00000KT 10SM CLR M06/M07 A3022 RMK AO1
KLHM 201455Z AUTO 00000KT 10SM CLR M06/M08 A3022 RMK AO1
KLHM 201435Z AUTO 00000KT 10SM CLR M03/M06 A3020 RMK AO1
KLHM 201415Z AUTO 00000KT 10SM CLR M03/M06 A3020 RMK AO1
KLHM 201355Z AUTO 00000KT 10SM CLR M05/M07 A3019 RMK AO1
KLHM 201335Z AUTO 00000KT 10SM CLR M03/M06 A3019 RMK AO1
KLHM 201315Z AUTO 00000KT 10SM CLR M04/M06 A3019 RMK AO1
KLHM 201255Z AUTO 34004KT 10SM CLR M05/M07 A3018 RMK AO1
KLHM 201235Z AUTO 03003KT 10SM CLR M05/M07 A3017 RMK AO1
KLHM 201215Z AUTO 00000KT 10SM CLR M04/M07 A3017 RMK AO1
KLHM 201155Z AUTO 00000KT 10SM CLR M05/M07 A3016 RMK AO1
KLHM 201135Z AUTO 00000KT 10SM CLR M01/M05 A3016 RMK AO1
KLHM 201115Z AUTO 00000KT 10SM CLR M05/M06 A3016 RMK AO1
KLHM 201055Z AUTO 00000KT 10SM CLR M02/M04 A3017 RMK AO1
KLHM 201035Z AUTO 29003KT 10SM CLR M03/M05 A3017 RMK AO1
KLHM 201015Z AUTO 05004KT 10SM CLR M03/M05 A3017 RMK AO1
KLHM 200955Z AUTO 02003KT 10SM CLR M04/M06 A3017 RMK AO1
KLHM 200935Z AUTO 05004KT 10SM CLR M04/M06 A3017 RMK AO1
KLHM 200915Z AUTO 08003KT 10SM CLR M03/M05 A3017 RMK AO1
KLHM 200855Z AUTO 00000KT 10SM CLR M03/M05 A3016 RMK AO1
KLHM 200835Z AUTO 00000KT 10SM CLR M04/M06 A3015 RMK AO1
KLHM 200815Z AUTO 03004KT 10SM CLR M02/M04 A3014 RMK AO1
KLHM 200755Z AUTO 07004KT 10SM CLR M01/M03 A3014 RMK AO1
KLHM 200735Z AUTO 07003KT 10SM CLR M02/M04 A3013 RMK AO1
KLHM 200715Z AUTO 06004KT 10SM CLR M02/M04 A3013 RMK AO1
KLHM 200655Z AUTO 00000KT 10SM CLR M01/M03 A3012 RMK AO1
KLHM 200635Z AUTO 00000KT 10SM CLR 00/M02 A3012 RMK AO1
KLHM 200615Z AUTO 00000KT 10SM CLR 00/M03 A3011 RMK AO1
KLHM 200555Z AUTO 00000KT 10SM CLR 00/M02 A3011 RMK AO1
KLHM 200535Z AUTO 00000KT 10SM CLR 01/M02 A3010 RMK AO1
KLHM 200515Z AUTO 00000KT 10SM CLR 01/M02 A3009 RMK AO1
KLHM 200455Z AUTO 12004KT 10SM CLR 02/M01 A3008 RMK AO1
KLHM 200435Z AUTO 08003KT 10SM CLR 01/M01 A3008 RMK AO1
KLHM 200415Z AUTO 10006KT 10SM CLR 01/M01 A3006 RMK AO1
KLHM 200355Z AUTO 09006KT 10SM CLR 01/M01 A3005 RMK AO1
KLHM 200335Z AUTO 10008KT 10SM CLR 02/M01 A3004 RMK AO1
KLHM 200315Z AUTO 11006KT 10SM CLR 02/M02 A3004 RMK AO1